createdAt,value
2019-05-14T00:02:12.231Z,100374.64
2019-05-14T00:04:42.286Z,100376.01
2019-05-14T00:07:11.583Z,100369.08
2019-05-14T00:09:41.319Z,100373.02
2019-05-14T00:12:11.384Z,100367.24
2019-05-14T00:14:43.324Z,100373.28
2019-05-14T00:17:11.322Z,100353.64
2019-05-14T00:19:41.652Z,100347.72
2019-05-14T00:22:11.490Z,100347.89
2019-05-14T00:24:41.720Z,100347.55
2019-05-14T00:27:11.475Z,100343.93
2019-05-14T00:29:41.707Z,100348.59
2019-05-14T00:32:11.162Z,100346.35
2019-05-14T00:34:42.208Z,100345.58
2019-05-14T00:37:11.475Z,100341.67
2019-05-14T00:39:41.641Z,100344.85
2019-05-14T00:42:12.418Z,100336.59
2019-05-14T00:44:53.565Z,100344.56
2019-05-14T00:47:11.303Z,100335.44
2019-05-14T00:49:42.278Z,100344.52
2019-05-14T00:52:11.683Z,100341.97
2019-05-14T00:54:41.605Z,100333.45
2019-05-14T00:57:11.825Z,100331.98
2019-05-14T00:59:41.703Z,100336.00
2019-05-14T01:02:11.404Z,100335.30
2019-05-14T01:04:42.544Z,100339.14
2019-05-14T01:07:11.877Z,100338.28
2019-05-14T01:09:42.194Z,100336.19
2019-05-14T01:12:12.270Z,100338.38
2019-05-14T01:14:42.357Z,100340.00
2019-05-14T01:17:11.344Z,100338.98
2019-05-14T01:19:42.206Z,100338.78
2019-05-14T01:22:12.229Z,100333.01
2019-05-14T01:24:41.752Z,100330.34
2019-05-14T01:27:12.362Z,100327.74
2019-05-14T01:29:42.546Z,100336.13
2019-05-14T01:32:11.654Z,100330.08
2019-05-14T01:34:42.039Z,100333.34
2019-05-14T01:37:11.632Z,100334.72
2019-05-14T01:39:41.756Z,100333.98
2019-05-14T01:42:12.396Z,100333.98
2019-05-14T01:44:41.397Z,100331.46
2019-05-14T01:47:12.453Z,100324.78
2019-05-14T01:49:42.466Z,100331.46
2019-05-14T01:52:11.243Z,100333.61
2019-05-14T01:54:42.423Z,100323.70
2019-05-14T01:57:11.539Z,100334.95
2019-05-14T01:59:42.613Z,100333.80
2019-05-14T02:02:11.604Z,100334.12
2019-05-14T02:04:42.387Z,100331.53
2019-05-14T02:07:11.594Z,100334.48
2019-05-14T02:09:41.943Z,100328.96
2019-05-14T02:12:11.650Z,100333.33
2019-05-14T02:14:42.537Z,100324.44
2019-05-14T02:17:12.357Z,100323.54
2019-05-14T02:19:42.582Z,100324.34
2019-05-14T02:22:11.429Z,100322.91
2019-05-14T02:24:41.757Z,100325.10
2019-05-14T02:27:12.337Z,100322.11
2019-05-14T02:29:41.591Z,100315.62
2019-05-14T02:32:10.844Z,100326.34
2019-05-14T02:34:40.301Z,100328.53
2019-05-14T02:37:09.452Z,100325.30
2019-05-14T02:39:40.838Z,100324.70
2019-05-14T02:42:09.341Z,100321.84
2019-05-14T02:44:40.842Z,100328.00
2019-05-14T02:47:09.870Z,100320.94
2019-05-14T02:49:39.884Z,100323.84
2019-05-14T02:52:10.057Z,100314.38
2019-05-14T02:54:40.509Z,100313.72
2019-05-14T02:57:10.472Z,100310.98
2019-05-14T02:59:39.740Z,100315.47
2019-05-14T03:02:09.938Z,100312.89
2019-05-14T03:04:39.485Z,100312.40
2019-05-14T03:07:10.980Z,100309.74
2019-05-14T03:09:40.294Z,100308.98
2019-05-14T03:12:10.042Z,100308.37
2019-05-14T03:14:39.726Z,100309.61
2019-05-14T03:17:10.472Z,100309.69
2019-05-14T03:19:40.603Z,100308.64
2019-05-14T03:22:10.319Z,100308.23
2019-05-14T03:24:39.871Z,100307.47
2019-05-14T03:27:09.774Z,100306.25
2019-05-14T03:29:39.781Z,100302.09
2019-05-14T03:32:12.764Z,100295.88
2019-05-14T03:34:43.079Z,100300.39
2019-05-14T03:37:12.765Z,100299.09
2019-05-14T03:39:39.892Z,100286.59
2019-05-14T03:42:09.481Z,100290.61
2019-05-14T03:44:39.862Z,100290.61
2019-05-14T03:47:10.288Z,100285.68
2019-05-14T03:49:39.977Z,100291.58
2019-05-14T03:52:09.667Z,100287.81
2019-05-14T03:54:40.681Z,100290.89
2019-05-14T03:57:09.655Z,100290.89
2019-05-14T03:59:40.216Z,100283.94
2019-05-14T04:02:10.169Z,100283.02
2019-05-14T04:04:39.525Z,100283.02
2019-05-14T04:07:10.115Z,100289.25
2019-05-14T04:09:40.478Z,100286.25
2019-05-14T04:12:10.202Z,100288.28
2019-05-14T04:14:40.652Z,100284.81
2019-05-14T04:17:15.406Z,100294.11
2019-05-14T04:19:43.264Z,100289.91
2019-05-14T04:22:13.711Z,100295.38
2019-05-14T04:24:43.653Z,100296.53
2019-05-14T04:27:14.108Z,100301.73
2019-05-14T04:29:42.801Z,100299.84
2019-05-14T04:32:11.573Z,100293.67
2019-05-14T04:34:40.428Z,100300.41
2019-05-14T04:37:10.239Z,100294.63
2019-05-14T04:39:39.816Z,100304.69
2019-05-14T04:42:09.682Z,100306.38
2019-05-14T04:44:40.445Z,100317.77
2019-05-14T04:47:25.260Z,100311.66
2019-05-14T04:49:40.088Z,100312.39
2019-05-14T04:52:09.955Z,100310.22
2019-05-14T04:54:39.598Z,100313.83
2019-05-14T04:57:10.335Z,100317.42
2019-05-14T04:59:39.945Z,100308.21
2019-05-14T05:02:09.712Z,100312.22
2019-05-14T05:04:41.120Z,100307.55
2019-05-14T05:07:09.867Z,100304.80
2019-05-14T05:09:39.803Z,100298.50
2019-05-14T05:12:09.262Z,100296.45
2019-05-14T05:14:38.910Z,100293.44
2019-05-14T05:17:09.238Z,100292.54
2019-05-14T05:19:39.344Z,100290.62
2019-05-14T05:22:08.212Z,100294.39
2019-05-14T05:24:38.097Z,100288.16
2019-05-14T05:27:09.116Z,100291.52
2019-05-14T05:29:39.226Z,100297.16
2019-05-14T05:32:08.667Z,100293.14
2019-05-14T05:34:38.929Z,100293.98
2019-05-14T05:37:08.632Z,100295.02
2019-05-14T05:39:38.663Z,100293.50
2019-05-14T05:42:09.219Z,100291.37
2019-05-14T05:44:39.382Z,100287.69
2019-05-14T05:47:09.244Z,100292.12
2019-05-14T05:49:38.258Z,100293.52
2019-05-14T05:52:08.571Z,100294.05
2019-05-14T05:54:38.459Z,100296.49
2019-05-14T05:57:09.241Z,100299.17
2019-05-14T05:59:39.319Z,100294.17
2019-05-14T06:02:09.401Z,100295.00
2019-05-14T06:04:39.309Z,100297.14
2019-05-14T06:07:08.879Z,100295.69
2019-05-14T06:09:38.125Z,100300.57
2019-05-14T06:12:08.737Z,100293.39
2019-05-14T06:14:38.209Z,100298.61
2019-05-14T06:17:08.494Z,100298.25
2019-05-14T06:19:38.214Z,100289.41
2019-05-14T06:22:09.580Z,100290.75
2019-05-14T06:24:38.960Z,100286.05
2019-05-14T06:27:09.503Z,100289.81
2019-05-14T06:29:38.293Z,100286.19
2019-05-14T06:32:09.094Z,100287.83
2019-05-14T06:34:38.293Z,100284.16
2019-05-14T06:37:08.413Z,100284.13
2019-05-14T06:39:39.101Z,100280.11
2019-05-14T06:42:08.790Z,100281.28
2019-05-14T06:44:38.545Z,100280.63
2019-05-14T06:47:09.327Z,100282.03
2019-05-14T06:49:38.591Z,100277.92
2019-05-14T06:52:08.808Z,100273.45
2019-05-14T06:54:38.728Z,100274.16
2019-05-14T06:57:08.932Z,100267.89
2019-05-14T06:59:38.434Z,100263.33
2019-05-14T07:02:08.671Z,100261.95
2019-05-14T07:04:39.471Z,100256.70
2019-05-14T07:07:08.519Z,100259.03
2019-05-14T07:09:38.502Z,100255.72
2019-05-14T07:12:09.174Z,100256.63
2019-05-14T07:14:38.839Z,100257.47
2019-05-14T07:17:09.077Z,100258.50
2019-05-14T07:19:38.556Z,100254.27
2019-05-14T07:22:08.930Z,100258.64
2019-05-14T07:24:40.413Z,100247.58
2019-05-14T07:27:09.431Z,100247.70
2019-05-14T07:29:38.821Z,100249.77
2019-05-14T07:32:08.989Z,100246.50
2019-05-14T07:34:38.825Z,100240.56
2019-05-14T07:37:09.392Z,100234.48
2019-05-14T07:39:38.603Z,100232.91
2019-05-14T07:42:09.867Z,100239.47
2019-05-14T07:44:39.056Z,100236.65
2019-05-14T07:47:08.325Z,100227.20
2019-05-14T07:49:38.531Z,100231.90
2019-05-14T07:52:09.346Z,100229.61
2019-05-14T07:54:38.970Z,100226.07
2019-05-14T07:57:08.659Z,100229.80
2019-05-14T07:59:38.122Z,100233.14
2019-05-14T08:02:09.101Z,100240.56
2019-05-14T08:04:38.157Z,100237.03
2019-05-14T08:07:08.917Z,100235.44
2019-05-14T08:09:38.890Z,100230.89
2019-05-14T08:12:09.267Z,100229.76
2019-05-14T08:14:46.453Z,100217.98
2019-05-14T08:17:08.657Z,100226.65
2019-05-14T08:19:38.561Z,100220.52
2019-05-14T08:22:09.505Z,100224.80
2019-05-14T08:24:38.511Z,100223.70
2019-05-14T08:27:08.565Z,100214.55
2019-05-14T08:29:39.907Z,100222.63
2019-05-14T08:32:08.877Z,100220.00
2019-05-14T08:34:38.936Z,100229.16
2019-05-14T08:37:08.215Z,100233.61
2019-05-14T08:39:39.237Z,100228.05
2019-05-14T08:42:08.481Z,100228.09
2019-05-14T08:44:38.959Z,100233.86
2019-05-14T08:47:09.640Z,100239.81
2019-05-14T08:49:45.857Z,100232.54
2019-05-14T08:52:08.769Z,100229.19
2019-05-14T08:54:39.143Z,100229.58
2019-05-14T08:57:09.767Z,100231.89
2019-05-14T08:59:39.637Z,100222.09
2019-05-14T09:02:10.614Z,100220.91
2019-05-14T09:04:42.764Z,100219.59
2019-05-14T09:07:09.536Z,100221.47
2019-05-14T09:09:38.346Z,100224.28
2019-05-14T09:12:12.135Z,100220.59
2019-05-14T09:14:38.821Z,100210.66
2019-05-14T09:17:09.851Z,100211.73
2019-05-14T09:19:40.821Z,100207.00
2019-05-14T09:22:09.611Z,100202.83
2019-05-14T09:24:38.870Z,100201.58
2019-05-14T09:27:08.452Z,100193.19
2019-05-14T09:29:39.289Z,100190.59
2019-05-14T09:32:09.645Z,100190.29
2019-05-14T09:34:39.311Z,100194.59
2019-05-14T09:37:08.584Z,100189.05
2019-05-14T09:39:38.584Z,100186.41
2019-05-14T09:42:08.217Z,100180.80
2019-05-14T09:44:38.737Z,100178.24
2019-05-14T09:47:08.618Z,100179.98
2019-05-14T09:49:38.843Z,100174.98
2019-05-14T09:52:09.095Z,100177.20
2019-05-14T09:54:41.537Z,100170.47
2019-05-14T09:57:08.444Z,100173.92
2019-05-14T09:59:38.436Z,100169.11
2019-05-14T10:02:09.187Z,100170.11
2019-05-14T10:04:39.198Z,100164.14
2019-05-14T10:07:08.712Z,100159.09
2019-05-14T10:09:39.160Z,100162.94
2019-05-14T10:12:08.945Z,100159.09
2019-05-14T10:14:39.402Z,100158.13
2019-05-14T10:17:08.017Z,100151.50
2019-05-14T10:19:39.305Z,100148.88
2019-05-14T10:22:08.351Z,100142.06
2019-05-14T10:24:38.562Z,100136.88
2019-05-14T10:27:08.982Z,100129.39
2019-05-14T10:29:39.337Z,100126.20
2019-05-14T10:32:08.685Z,100130.84
2019-05-14T10:34:37.435Z,100126.33
2019-05-14T10:37:08.376Z,100128.30
2019-05-14T10:39:38.892Z,100144.89
2019-05-14T10:42:08.308Z,100141.53
2019-05-14T10:44:38.766Z,100147.27
2019-05-14T10:47:08.960Z,100143.48
2019-05-14T10:49:38.692Z,100144.31
2019-05-14T10:52:08.275Z,100140.89
2019-05-14T10:54:40.251Z,100135.35
2019-05-14T10:57:09.738Z,100129.92
2019-05-14T10:59:37.384Z,100130.11
2019-05-14T11:02:05.858Z,100135.05
2019-05-14T11:04:34.704Z,100134.50
2019-05-14T11:07:03.197Z,100130.04
2019-05-14T11:09:31.687Z,100125.86
2019-05-14T11:12:00.168Z,100126.02
2019-05-14T11:14:31.671Z,100119.88
2019-05-14T11:16:59.277Z,100124.23
2019-05-14T11:19:28.227Z,100126.60
2019-05-14T11:21:57.956Z,100121.38
2019-05-14T11:24:26.477Z,100126.92
2019-05-14T11:26:54.960Z,100119.26
2019-05-14T11:29:23.444Z,100117.11
2019-05-14T11:31:51.928Z,100116.36
2019-05-14T11:34:20.421Z,100117.60
2019-05-14T11:36:49.707Z,100109.27
2019-05-14T11:39:18.372Z,100114.09
2019-05-14T11:41:49.118Z,100116.28
2019-05-14T11:44:17.070Z,100107.64
2019-05-14T11:46:52.445Z,100107.20
2019-05-14T11:49:15.787Z,100108.13
2019-05-14T11:52:00.657Z,100103.82
2019-05-14T11:54:14.559Z,100105.75
2019-05-14T11:56:43.032Z,100107.12
2019-05-14T11:59:11.535Z,100104.31
2019-05-14T12:01:40.009Z,100098.99
2019-05-14T12:04:09.075Z,100108.78
2019-05-14T12:06:38.984Z,100111.41
2019-05-14T12:09:11.755Z,100114.99
2019-05-14T12:11:38.613Z,100108.62
2019-05-14T12:14:08.893Z,100110.23
2019-05-14T12:16:40.110Z,100112.13
2019-05-14T12:19:11.585Z,100112.02
2019-05-14T12:21:39.793Z,100113.45
2019-05-14T12:24:13.397Z,100115.16
2019-05-14T12:26:38.829Z,100115.92
2019-05-14T12:29:09.592Z,100118.69
2019-05-14T12:31:38.578Z,100109.65
2019-05-14T12:34:07.260Z,100114.78
2019-05-14T12:36:38.615Z,100114.70
2019-05-14T12:39:09.633Z,100116.50
2019-05-14T12:41:38.441Z,100103.08
2019-05-14T12:44:09.361Z,100094.87
2019-05-14T12:46:37.148Z,100097.70
2019-05-14T12:49:05.642Z,100096.25
2019-05-14T12:51:37.864Z,100090.09
2019-05-14T12:54:04.431Z,100086.45
2019-05-14T12:56:32.923Z,100087.46
2019-05-14T12:59:01.404Z,100085.67
2019-05-14T13:01:29.926Z,100077.30
2019-05-14T13:03:59.224Z,100073.23
2019-05-14T13:06:29.358Z,100066.40
2019-05-14T13:08:58.583Z,100061.34
2019-05-14T13:11:28.010Z,100049.92
2019-05-14T13:13:58.572Z,100061.45
2019-05-14T13:16:28.475Z,100048.17
2019-05-14T13:18:59.699Z,100048.92
2019-05-14T13:21:28.963Z,100041.79
2019-05-14T13:23:57.639Z,100034.76
2019-05-14T13:26:26.136Z,100033.89
2019-05-14T13:28:54.617Z,100023.15
2019-05-14T13:31:23.110Z,100028.55
2019-05-14T13:33:51.589Z,100021.70
2019-05-14T13:36:20.841Z,100008.58
2019-05-14T13:38:49.358Z,100017.80
2019-05-14T13:41:19.227Z,100008.67
2019-05-14T13:43:50.525Z,100012.30
2019-05-14T13:46:18.939Z,100007.81
2019-05-14T13:48:49.866Z,99996.83
2019-05-14T13:51:19.527Z,99991.39
2019-05-14T13:53:49.840Z,99990.12
2019-05-14T13:56:18.875Z,99977.01
2019-05-14T13:58:48.926Z,99972.47
2019-05-14T14:01:19.278Z,99972.23
2019-05-14T14:04:02.411Z,99974.36
2019-05-14T14:06:20.665Z,99971.75
2019-05-14T14:08:48.869Z,99960.19
2019-05-14T14:11:19.373Z,99955.13
2019-05-14T14:13:48.928Z,99954.83
2019-05-14T14:16:19.719Z,99958.62
2019-05-14T14:18:50.092Z,99954.80
2019-05-14T14:21:19.606Z,99955.20
2019-05-14T14:23:49.458Z,99945.68
2019-05-14T14:26:18.573Z,99948.22
2019-05-14T14:28:49.310Z,99941.15
2019-05-14T14:31:18.932Z,99938.42
2019-05-14T14:33:48.718Z,99938.89
2019-05-14T14:36:19.929Z,99940.41
2019-05-14T14:38:49.431Z,99933.46
2019-05-14T14:41:19.355Z,99927.60
2019-05-14T14:43:53.630Z,99932.17
2019-05-14T14:46:19.598Z,99931.22
2019-05-14T14:48:49.428Z,99943.94
2019-05-14T14:51:19.287Z,99936.28
2019-05-14T14:53:59.237Z,99927.77
2019-05-14T14:56:18.899Z,99934.94
2019-05-14T14:58:49.309Z,99936.39
2019-05-14T15:01:19.522Z,99939.35
2019-05-14T15:03:49.720Z,99929.87
2019-05-14T15:06:18.348Z,99920.86
2019-05-14T15:08:49.371Z,99926.48
2019-05-14T15:11:17.019Z,99927.34
2019-05-14T15:13:48.079Z,99922.08
2019-05-14T15:16:15.907Z,99916.44
2019-05-14T15:18:44.443Z,99917.75
2019-05-14T15:21:12.988Z,99907.67
2019-05-14T15:23:43.564Z,99908.02
2019-05-14T15:26:12.294Z,99903.84
2019-05-14T15:28:40.861Z,99906.20
2019-05-14T15:31:09.360Z,99896.13
2019-05-14T15:33:37.849Z,99893.50
2019-05-14T15:36:08.783Z,99896.86
2019-05-14T15:38:39.362Z,99891.03
2019-05-14T15:41:12.724Z,99893.49
2019-05-14T15:43:39.549Z,99885.52
2019-05-14T15:46:08.731Z,99881.01
2019-05-14T15:48:39.474Z,99880.64
2019-05-14T15:51:14.371Z,99873.35
2019-05-14T15:53:38.605Z,99877.63
2019-05-14T15:56:08.047Z,99875.25
2019-05-14T15:58:38.901Z,99862.98
2019-05-14T16:01:10.152Z,99855.45
2019-05-14T16:03:41.328Z,99856.14
2019-05-14T16:06:08.957Z,99859.56
2019-05-14T16:08:40.155Z,99857.56
2019-05-14T16:11:11.470Z,99867.00
2019-05-14T16:13:39.806Z,99863.59
2019-05-14T16:16:10.499Z,99849.20
2019-05-14T16:18:38.624Z,99853.75
2019-05-14T16:21:10.234Z,99851.92
2019-05-14T16:23:38.740Z,99847.34
2019-05-14T16:26:08.864Z,99846.23
2019-05-14T16:28:39.436Z,99845.80
2019-05-14T16:31:08.586Z,99848.63
2019-05-14T16:33:40.361Z,99841.52
2019-05-14T16:36:08.806Z,99839.94
2019-05-14T16:38:39.472Z,99842.88
2019-05-14T16:41:07.743Z,99837.31
2019-05-14T16:43:36.236Z,99845.04
2019-05-14T16:46:04.779Z,99846.73
2019-05-14T16:48:33.291Z,99841.81
2019-05-14T16:51:01.744Z,99833.33
2019-05-14T16:53:30.248Z,99830.81
2019-05-14T16:55:58.712Z,99826.69
2019-05-14T16:58:29.213Z,99818.93
2019-05-14T17:00:58.851Z,99814.36
2019-05-14T17:03:29.745Z,99814.52
2019-05-14T17:05:58.102Z,99819.42
2019-05-14T17:08:28.503Z,99815.08
2019-05-14T17:10:59.017Z,99813.91
2019-05-14T17:13:28.570Z,99820.16
2019-05-14T17:15:58.920Z,99817.51
2019-05-14T17:18:28.725Z,99815.91
2019-05-14T17:20:59.458Z,99816.61
2019-05-14T17:23:28.388Z,99813.24
2019-05-14T17:25:57.970Z,99807.25
2019-05-14T17:28:28.645Z,99809.89
2019-05-14T17:30:56.794Z,99807.45
2019-05-14T17:33:25.278Z,99810.86
2019-05-14T17:35:53.803Z,99809.36
2019-05-14T17:38:22.264Z,99807.06
2019-05-14T17:40:50.771Z,99806.58
2019-05-14T17:43:22.866Z,99811.41
2019-05-14T17:45:49.467Z,99816.41
2019-05-14T17:48:18.359Z,99817.55
2019-05-14T17:50:49.162Z,99818.98
2019-05-14T17:53:18.342Z,99822.30
2019-05-14T17:55:50.145Z,99828.51
2019-05-14T17:58:18.912Z,99827.41
2019-05-14T18:00:47.477Z,99820.20
2019-05-14T18:03:18.228Z,99817.42
2019-05-14T18:05:46.352Z,99818.03
2019-05-14T18:08:14.834Z,99817.27
2019-05-14T18:10:43.398Z,99817.32
2019-05-14T18:13:12.043Z,99817.53
2019-05-14T18:15:40.542Z,99814.48
2019-05-14T18:18:09.157Z,99818.33
2019-05-14T18:20:39.438Z,99827.66
2019-05-14T18:23:11.610Z,99819.83
2019-05-14T18:25:38.902Z,99829.20
2019-05-14T18:28:09.305Z,99824.70
2019-05-14T18:30:38.733Z,99818.84
2019-05-14T18:33:07.972Z,99819.28
2019-05-14T18:35:45.203Z,99826.64
2019-05-14T18:38:08.271Z,99820.02
2019-05-14T18:40:36.814Z,99818.28
2019-05-14T18:43:05.296Z,99820.55
2019-05-14T18:45:33.858Z,99823.77
2019-05-14T18:48:02.400Z,99823.62
2019-05-14T18:50:30.899Z,99832.11
2019-05-14T18:52:59.872Z,99830.80
2019-05-14T18:55:29.357Z,99831.32
2019-05-14T18:57:59.317Z,99828.25
2019-05-14T19:00:29.382Z,99832.29
2019-05-14T19:02:58.159Z,99835.53
2019-05-14T19:05:29.196Z,99837.32
2019-05-14T19:07:59.126Z,99836.13
2019-05-14T19:10:28.049Z,99831.72
2019-05-14T19:12:58.768Z,99830.38
2019-05-14T19:15:26.910Z,99837.36
2019-05-14T19:17:57.915Z,99841.91
2019-05-14T19:20:25.601Z,99840.28
2019-05-14T19:22:54.110Z,99838.17
2019-05-14T19:25:22.570Z,99832.95
2019-05-14T19:27:51.064Z,99829.74
2019-05-14T19:30:19.670Z,99833.95
2019-05-14T19:32:48.650Z,99824.91
2019-05-14T19:35:19.255Z,99825.59
2019-05-14T19:37:48.702Z,99822.53
2019-05-14T19:40:18.961Z,99821.16
2019-05-14T19:42:48.556Z,99821.14
2019-05-14T19:45:17.428Z,99824.66
2019-05-14T19:47:45.993Z,99819.78
2019-05-14T19:50:14.925Z,99816.50
2019-05-14T19:52:43.813Z,99825.63
2019-05-14T19:55:12.622Z,99816.22
2019-05-14T19:57:41.121Z,99819.62
2019-05-14T20:00:10.429Z,99816.50
2019-05-14T20:02:39.362Z,99810.96
2019-05-14T20:05:09.073Z,99819.13
2019-05-14T20:07:38.720Z,99821.45
2019-05-14T20:10:09.431Z,99819.22
2019-05-14T20:12:39.196Z,99820.55
2019-05-14T20:15:09.500Z,99826.72
2019-05-14T20:17:38.579Z,99822.82
2019-05-14T20:20:08.895Z,99830.78
2019-05-14T20:22:39.353Z,99834.89
2019-05-14T20:25:10.059Z,99841.48
2019-05-14T20:27:39.363Z,99839.19
2019-05-14T20:30:09.921Z,99841.20
2019-05-14T20:32:38.857Z,99842.14
2019-05-14T20:35:08.951Z,99842.77
2019-05-14T20:37:39.071Z,99843.37
2019-05-14T20:40:09.936Z,99834.53
2019-05-14T20:42:39.474Z,99833.56
2019-05-14T20:45:08.601Z,99835.20
2019-05-14T20:47:39.031Z,99830.91
2019-05-14T20:50:08.899Z,99828.45
2019-05-14T20:52:37.953Z,99823.25
2019-05-14T20:55:09.531Z,99822.09
2019-05-14T20:57:38.471Z,99826.34
2019-05-14T21:00:11.380Z,99824.75
2019-05-14T21:02:39.755Z,99817.95
2019-05-14T21:05:13.367Z,99819.27
2019-05-14T21:07:39.641Z,99820.90
2019-05-14T21:10:09.153Z,99809.64
2019-05-14T21:12:39.487Z,99812.08
2019-05-14T21:15:09.220Z,99817.67
2019-05-14T21:17:38.328Z,99820.02
2019-05-14T21:20:09.065Z,99815.63
2019-05-14T21:22:39.647Z,99815.44
2019-05-14T21:25:11.277Z,99817.70
2019-05-14T21:27:47.486Z,99822.89
2019-05-14T21:30:09.348Z,99815.01
2019-05-14T21:32:42.020Z,99806.66
2019-05-14T21:35:08.366Z,99803.58
2019-05-14T21:37:39.234Z,99805.50
2019-05-14T21:40:09.849Z,99804.17
2019-05-14T21:42:38.796Z,99806.09
2019-05-14T21:45:09.868Z,99796.47
2019-05-14T21:47:38.863Z,99800.04
2019-05-14T21:50:08.927Z,99798.05
2019-05-14T21:52:39.246Z,99795.30
2019-05-14T21:55:08.196Z,99790.08
2019-05-14T21:57:38.231Z,99781.66
2019-05-14T22:00:21.738Z,99780.50
2019-05-14T22:02:50.361Z,99780.64
2019-05-14T22:05:19.165Z,99780.33
2019-05-14T22:07:48.506Z,99778.42
2019-05-14T22:10:19.110Z,99785.30
2019-05-14T22:12:48.730Z,99777.14
2019-05-14T22:15:18.420Z,99783.68
2019-05-14T22:17:49.116Z,99783.38
2019-05-14T22:20:19.173Z,99784.97
2019-05-14T22:22:48.384Z,99785.94
2019-05-14T22:25:18.942Z,99784.77
2019-05-14T22:27:48.440Z,99777.74
2019-05-14T22:30:18.202Z,99781.93
2019-05-14T22:32:46.885Z,99774.70
2019-05-14T22:35:15.520Z,99767.53
2019-05-14T22:37:43.984Z,99765.55
2019-05-14T22:40:13.102Z,99763.88
2019-05-14T22:42:41.565Z,99766.63
2019-05-14T22:45:10.298Z,99770.33
2019-05-14T22:47:40.533Z,99767.65
2019-05-14T22:50:09.783Z,99774.12
2019-05-14T22:52:38.781Z,99775.80
2019-05-14T22:55:07.683Z,99770.22
2019-05-14T22:57:38.912Z,99770.59
2019-05-14T23:00:08.594Z,99771.82
2019-05-14T23:02:38.100Z,99759.20
2019-05-14T23:05:08.430Z,99773.08
2019-05-14T23:07:38.492Z,99766.70
2019-05-14T23:10:08.927Z,99772.92
2019-05-14T23:12:38.573Z,99765.56
2019-05-14T23:15:07.827Z,99764.09
2019-05-14T23:17:38.707Z,99771.08
2019-05-14T23:20:09.004Z,99767.53
2019-05-14T23:22:38.949Z,99766.70
2019-05-14T23:25:08.986Z,99761.17
2019-05-14T23:27:39.018Z,99758.56
2019-05-14T23:30:08.606Z,99753.98
2019-05-14T23:32:38.401Z,99757.75
2019-05-14T23:35:08.069Z,99763.11
2019-05-14T23:37:36.541Z,99762.30
2019-05-14T23:40:08.392Z,99756.30
2019-05-14T23:42:39.044Z,99761.89
2019-05-14T23:45:08.266Z,99759.60
2019-05-14T23:47:38.432Z,99756.71
2019-05-14T23:50:08.172Z,99766.98
2019-05-14T23:52:38.776Z,99752.80
2019-05-14T23:55:08.539Z,99751.82
2019-05-14T23:57:37.177Z,99757.33
